createdAt,value
2023-01-21T00:01:22.873Z,4.70
2023-01-21T00:03:51.487Z,7.38
2023-01-21T00:06:19.736Z,5.60
2023-01-21T00:08:47.911Z,5.05
2023-01-21T00:11:17.438Z,5.57
2023-01-21T00:13:46.275Z,3.67
2023-01-21T00:16:15.910Z,3.28
2023-01-21T00:18:44.298Z,3.75
2023-01-21T00:21:12.789Z,2.88
2023-01-21T00:23:41.313Z,2.65
2023-01-21T00:26:12.544Z,2.67
2023-01-21T00:28:43.718Z,2.47
2023-01-21T00:31:13.526Z,2.72
2023-01-21T00:33:43.133Z,2.50
2023-01-21T00:36:14.184Z,2.90
2023-01-21T00:38:42.776Z,3.05
2023-01-21T00:41:13.130Z,1.77
2023-01-21T00:43:42.878Z,1.98
2023-01-21T00:46:12.179Z,1.80
2023-01-21T00:48:42.146Z,1.65
2023-01-21T00:51:11.099Z,1.40
2023-01-21T00:53:42.756Z,1.38
2023-01-21T00:56:14.773Z,1.67
2023-01-21T00:58:44.361Z,1.60
2023-01-21T01:01:15.128Z,1.90
2023-01-21T01:03:45.416Z,1.70
2023-01-21T01:06:16.957Z,1.38
2023-01-21T01:08:46.336Z,2.45
2023-01-21T01:11:15.193Z,3.55
2023-01-21T01:13:44.269Z,2.92
2023-01-21T01:16:18.453Z,2.97
2023-01-21T01:18:48.965Z,3.55
2023-01-21T01:21:20.124Z,4.15
2023-01-21T01:23:49.326Z,2.90
2023-01-21T01:26:20.547Z,3.75
2023-01-21T01:28:49.325Z,2.58
2023-01-21T01:31:20.471Z,3.42
2023-01-21T01:33:50.429Z,2.67
2023-01-21T01:36:21.097Z,3.22
2023-01-21T01:38:49.738Z,3.60
2023-01-21T01:41:20.521Z,3.08
2023-01-21T01:43:59.486Z,4.00
2023-01-21T01:46:30.166Z,3.78
2023-01-21T01:49:08.020Z,3.08
2023-01-21T01:51:47.424Z,5.07
2023-01-21T01:54:19.509Z,3.15
2023-01-21T01:56:51.944Z,3.60
2023-01-21T01:59:21.119Z,2.63
2023-01-21T02:01:49.883Z,3.75
2023-01-21T02:04:24.898Z,3.10
2023-01-21T02:06:54.694Z,3.10
2023-01-21T02:09:27.840Z,4.07
2023-01-21T02:11:56.529Z,3.95
2023-01-21T02:14:25.152Z,4.72
2023-01-21T02:17:13.048Z,4.88
2023-01-21T02:20:42.282Z,3.88
2023-01-21T02:23:18.033Z,5.53
2023-01-21T02:26:29.874Z,6.70
2023-01-21T02:29:46.674Z,6.78
2023-01-21T02:33:04.969Z,8.10
2023-01-21T02:35:43.946Z,6.60
2023-01-21T02:38:22.495Z,9.85
2023-01-21T02:41:03.738Z,9.50
2023-01-21T02:43:43.411Z,11.13
2023-01-21T02:46:19.709Z,11.10
2023-01-21T02:48:57.483Z,11.23
2023-01-21T02:51:27.321Z,13.48
2023-01-21T02:53:55.823Z,15.52
2023-01-21T02:56:28.026Z,14.02
2023-01-21T02:59:00.591Z,16.00
2023-01-21T03:01:44.334Z,16.92
2023-01-21T03:04:44.710Z,14.73
2023-01-21T03:07:23.538Z,18.23
2023-01-21T03:09:51.961Z,16.02
2023-01-21T03:12:31.935Z,18.88
2023-01-21T03:15:25.211Z,14.82
2023-01-21T03:18:01.284Z,15.63
2023-01-21T03:20:34.315Z,15.85
2023-01-21T03:23:07.616Z,15.88
2023-01-21T03:25:37.904Z,17.33
2023-01-21T03:28:11.905Z,16.27
2023-01-21T03:30:44.799Z,16.17
2023-01-21T03:33:15.877Z,17.27
2023-01-21T03:35:48.404Z,15.90
2023-01-21T03:38:23.836Z,17.45
2023-01-21T03:40:59.426Z,14.93
2023-01-21T03:43:27.967Z,17.17
2023-01-21T03:46:04.174Z,13.10
2023-01-21T03:48:41.202Z,17.73
2023-01-21T03:51:16.066Z,15.40
2023-01-21T03:53:46.482Z,17.83
2023-01-21T03:56:14.679Z,16.63
2023-01-21T03:58:43.188Z,18.60
2023-01-21T04:01:11.866Z,16.50
2023-01-21T04:03:40.880Z,15.55
2023-01-21T04:06:11.937Z,15.93
2023-01-21T04:08:40.535Z,15.20
2023-01-21T04:11:10.140Z,16.50
2023-01-21T04:13:38.508Z,14.82
2023-01-21T04:16:07.950Z,15.05
2023-01-21T04:18:36.508Z,13.60
2023-01-21T04:21:04.909Z,14.38
2023-01-21T04:23:33.530Z,16.20
2023-01-21T04:26:01.881Z,15.10
2023-01-21T04:28:31.629Z,17.08
2023-01-21T04:31:00.544Z,16.60
2023-01-21T04:33:30.601Z,15.23
2023-01-21T04:35:59.668Z,16.70
2023-01-21T04:38:28.580Z,14.25
2023-01-21T04:40:57.141Z,15.13
2023-01-21T04:43:25.988Z,16.73
2023-01-21T04:45:55.592Z,17.42
2023-01-21T04:48:24.321Z,16.45
2023-01-21T04:50:52.720Z,17.88
2023-01-21T04:53:21.240Z,13.52
2023-01-21T04:55:51.937Z,15.35
2023-01-21T04:58:20.566Z,13.68
2023-01-21T05:00:49.100Z,15.23
2023-01-21T05:03:18.633Z,16.40
2023-01-21T05:05:47.183Z,11.68
2023-01-21T05:08:15.734Z,12.52
2023-01-21T05:10:44.262Z,12.32
2023-01-21T05:13:12.880Z,12.45
2023-01-21T05:15:41.451Z,11.88
2023-01-21T05:18:09.699Z,11.20
2023-01-21T05:20:39.279Z,10.32
2023-01-21T05:23:07.466Z,11.15
2023-01-21T05:25:35.665Z,9.00
2023-01-21T05:28:05.105Z,8.25
2023-01-21T05:30:33.641Z,11.30
2023-01-21T05:33:02.161Z,10.25
2023-01-21T05:35:30.744Z,10.88
2023-01-21T05:38:00.562Z,8.35
2023-01-21T05:40:28.865Z,9.43
2023-01-21T05:42:57.452Z,8.52
2023-01-21T05:45:25.939Z,9.93
2023-01-21T05:47:54.606Z,9.38
2023-01-21T05:50:22.901Z,8.10
2023-01-21T05:52:51.108Z,9.02
2023-01-21T05:55:20.659Z,7.43
2023-01-21T05:57:49.009Z,7.88
2023-01-21T06:00:18.705Z,8.57
2023-01-21T06:02:47.407Z,7.00
2023-01-21T06:05:16.169Z,9.82
2023-01-21T06:07:44.678Z,9.60
2023-01-21T06:10:13.049Z,8.02
2023-01-21T06:12:42.748Z,8.55
2023-01-21T06:15:13.782Z,6.88
2023-01-21T06:17:42.445Z,8.57
2023-01-21T06:20:12.406Z,7.97
2023-01-21T06:22:40.707Z,7.38
2023-01-21T06:25:09.899Z,9.95
2023-01-21T06:27:38.715Z,7.88
2023-01-21T06:30:11.047Z,9.73
2023-01-21T06:32:40.204Z,10.23
2023-01-21T06:35:09.502Z,9.32
2023-01-21T06:37:38.149Z,10.27
2023-01-21T06:40:08.726Z,11.50
2023-01-21T06:42:37.320Z,12.35
2023-01-21T06:45:09.052Z,11.27
2023-01-21T06:47:37.367Z,11.95
2023-01-21T06:50:06.625Z,14.52
2023-01-21T06:52:34.884Z,12.10
2023-01-21T06:55:03.438Z,11.30
2023-01-21T06:57:31.701Z,10.85
2023-01-21T07:00:00.277Z,11.88
2023-01-21T07:02:29.931Z,9.32
2023-01-21T07:04:59.244Z,9.68
2023-01-21T07:07:27.782Z,10.80
2023-01-21T07:09:56.386Z,10.43
2023-01-21T07:12:24.663Z,9.43
2023-01-21T07:14:53.175Z,8.52
2023-01-21T07:17:23.121Z,8.90
2023-01-21T07:19:52.728Z,8.82
2023-01-21T07:22:21.313Z,10.23
2023-01-21T07:24:49.501Z,9.43
2023-01-21T07:27:18.023Z,9.25
2023-01-21T07:29:46.716Z,9.50
2023-01-21T07:32:15.235Z,10.30
2023-01-21T07:34:43.763Z,7.63
2023-01-21T07:37:13.381Z,10.00
2023-01-21T07:39:42.007Z,10.32
2023-01-21T07:42:11.256Z,8.73
2023-01-21T07:44:39.888Z,10.52
2023-01-21T07:47:08.422Z,9.70
2023-01-21T07:49:37.522Z,8.98
2023-01-21T07:52:06.192Z,8.95
2023-01-21T07:54:35.729Z,9.07
2023-01-21T07:57:04.522Z,10.60
2023-01-21T07:59:32.772Z,9.77
2023-01-21T08:02:01.380Z,10.35
2023-01-21T08:04:29.622Z,10.25
2023-01-21T08:06:58.926Z,11.25
2023-01-21T08:09:27.528Z,12.82
2023-01-21T08:11:57.662Z,11.90
2023-01-21T08:14:27.293Z,11.25
2023-01-21T08:16:55.559Z,18.98
2023-01-21T08:19:24.136Z,15.27
2023-01-21T08:21:52.395Z,15.80
2023-01-21T08:24:20.952Z,13.93
2023-01-21T08:26:49.585Z,13.48
2023-01-21T08:29:19.141Z,13.77
2023-01-21T08:31:47.392Z,11.15
2023-01-21T08:34:16.913Z,12.35
2023-01-21T08:36:45.335Z,12.18
2023-01-21T08:39:15.225Z,11.45
2023-01-21T08:41:44.183Z,13.40
2023-01-21T08:44:12.492Z,13.27
2023-01-21T08:46:42.012Z,13.02
2023-01-21T08:49:10.642Z,17.20
2023-01-21T08:51:39.201Z,13.85
2023-01-21T08:54:08.843Z,13.55
2023-01-21T08:56:37.356Z,12.25
2023-01-21T08:59:05.763Z,13.93
2023-01-21T09:01:36.110Z,13.15
2023-01-21T09:04:06.742Z,13.20
2023-01-21T09:06:35.422Z,12.27
2023-01-21T09:09:04.019Z,13.27
2023-01-21T09:11:32.387Z,12.48
2023-01-21T09:14:03.370Z,12.48
2023-01-21T09:16:32.508Z,10.80
2023-01-21T09:19:01.272Z,12.55
2023-01-21T09:21:31.325Z,12.93
2023-01-21T09:23:59.884Z,13.65
2023-01-21T09:26:28.763Z,14.00
2023-01-21T09:28:59.482Z,14.35
2023-01-21T09:31:29.881Z,13.85
2023-01-21T09:34:01.722Z,14.30
2023-01-21T09:36:33.958Z,15.55
2023-01-21T09:39:02.904Z,13.63
2023-01-21T09:41:36.967Z,14.85
2023-01-21T09:44:15.478Z,13.68
2023-01-21T09:46:53.307Z,15.77
2023-01-21T09:49:26.099Z,13.50
2023-01-21T09:52:04.410Z,14.32
2023-01-21T09:54:36.941Z,13.55
2023-01-21T09:57:25.466Z,15.40
2023-01-21T10:00:27.375Z,13.30
2023-01-21T10:03:04.458Z,14.73
2023-01-21T10:06:13.693Z,14.65
2023-01-21T10:09:01.328Z,13.50
2023-01-21T10:11:46.480Z,13.13
2023-01-21T10:14:43.089Z,15.95
2023-01-21T10:17:16.801Z,13.80
2023-01-21T10:19:52.051Z,17.25
2023-01-21T10:22:26.679Z,14.30
2023-01-21T10:25:02.130Z,13.68
2023-01-21T10:27:36.367Z,14.00
2023-01-21T10:30:20.019Z,13.88
2023-01-21T10:32:52.236Z,14.52
2023-01-21T10:35:25.526Z,12.93
2023-01-21T10:38:02.968Z,13.25
2023-01-21T10:40:46.204Z,15.60
2023-01-21T10:43:30.707Z,16.98
2023-01-21T10:46:11.935Z,16.45
2023-01-21T10:48:48.518Z,15.50
2023-01-21T10:51:22.247Z,15.15
2023-01-21T10:53:59.380Z,15.52
2023-01-21T10:56:40.899Z,16.00
2023-01-21T10:59:14.516Z,13.98
2023-01-21T11:01:47.691Z,15.07
2023-01-21T11:04:20.359Z,15.55
2023-01-21T11:06:58.414Z,16.70
2023-01-21T11:09:31.289Z,15.65
2023-01-21T11:12:01.874Z,13.65
2023-01-21T11:14:30.709Z,15.30
2023-01-21T11:16:59.647Z,13.40
2023-01-21T11:19:31.354Z,14.45
2023-01-21T11:22:04.225Z,13.70
2023-01-21T11:24:43.144Z,13.38
2023-01-21T11:27:21.424Z,11.20
2023-01-21T11:29:51.451Z,12.65
2023-01-21T11:32:23.009Z,11.57
2023-01-21T11:34:54.819Z,11.95
2023-01-21T11:37:26.432Z,10.55
2023-01-21T11:39:58.599Z,10.70
2023-01-21T11:42:28.610Z,8.68
2023-01-21T11:44:59.261Z,9.32
2023-01-21T11:47:31.562Z,10.32
2023-01-21T11:50:12.125Z,8.95
2023-01-21T11:52:40.636Z,9.95
2023-01-21T11:55:21.683Z,9.98
2023-01-21T11:57:56.690Z,8.80
2023-01-21T12:00:28.044Z,9.77
2023-01-21T12:03:00.994Z,9.50
2023-01-21T12:05:34.341Z,9.68
2023-01-21T12:08:05.796Z,11.40
2023-01-21T12:10:38.249Z,10.65
2023-01-21T12:13:21.901Z,11.40
2023-01-21T12:16:12.240Z,9.65
2023-01-21T12:19:07.628Z,9.45
2023-01-21T12:21:55.930Z,14.63
2023-01-21T12:24:40.032Z,11.02
2023-01-21T12:31:43.560Z,11.02
2023-01-21T12:34:21.167Z,9.68
2023-01-21T12:36:54.043Z,8.48
2023-01-21T12:39:26.920Z,11.48
2023-01-21T12:42:07.381Z,13.02
2023-01-21T12:44:43.439Z,11.57
2023-01-21T12:47:23.688Z,13.73
2023-01-21T12:50:24.676Z,13.23
2023-01-21T12:53:06.162Z,13.25
2023-01-21T12:59:58.019Z,11.68
2023-01-21T13:02:35.330Z,11.93
2023-01-21T13:05:11.049Z,13.43
2023-01-21T13:07:48.905Z,13.73
2023-01-21T13:10:24.445Z,12.90
2023-01-21T13:13:01.476Z,12.10
2023-01-21T13:15:34.211Z,13.63
2023-01-21T13:18:13.425Z,12.23
2023-01-21T13:20:52.552Z,12.07
2023-01-21T13:23:29.295Z,13.07
2023-01-21T13:26:04.415Z,12.77
2023-01-21T13:28:40.343Z,14.50
2023-01-21T13:31:18.813Z,11.98
2023-01-21T13:34:00.690Z,12.48
2023-01-21T13:36:44.313Z,11.88
2023-01-21T13:39:24.858Z,10.30
2023-01-21T13:42:24.297Z,9.73
2023-01-21T13:45:21.122Z,10.18
2023-01-21T13:48:06.665Z,10.85
2023-01-21T13:50:55.118Z,10.65
2023-01-21T13:53:50.612Z,7.70
2023-01-21T13:56:42.732Z,9.90
2023-01-21T13:59:16.600Z,10.45
2023-01-21T14:01:50.459Z,10.23
2023-01-21T14:04:26.981Z,9.80
2023-01-21T14:07:04.915Z,9.05
2023-01-21T14:09:41.125Z,8.60
2023-01-21T14:12:15.179Z,9.68
2023-01-21T14:15:12.127Z,8.50
2023-01-21T14:18:10.130Z,9.70
2023-01-21T14:21:15.698Z,8.63
2023-01-21T14:27:00.924Z,7.05
2023-01-21T14:29:37.412Z,8.18
2023-01-21T14:32:15.478Z,8.95
2023-01-21T14:34:55.090Z,9.98
2023-01-21T14:37:32.664Z,7.55
2023-01-21T14:40:16.394Z,7.80
2023-01-21T14:42:47.741Z,8.50
2023-01-21T14:45:19.307Z,8.32
2023-01-21T14:47:51.530Z,8.20
2023-01-21T14:50:53.161Z,9.15
2023-01-21T14:53:27.595Z,9.13
2023-01-21T14:56:27.716Z,7.32
2023-01-21T14:58:59.521Z,7.50
2023-01-21T15:01:36.379Z,8.35
2023-01-21T15:04:09.302Z,8.32
2023-01-21T15:06:40.660Z,8.48
2023-01-21T15:09:18.999Z,8.88
2023-01-21T15:11:54.420Z,9.90
2023-01-21T15:14:26.463Z,8.82
2023-01-21T15:16:55.051Z,7.30
2023-01-21T15:19:32.663Z,8.32
2023-01-21T15:22:20.816Z,7.82
2023-01-21T15:25:37.002Z,7.65
2023-01-21T15:28:44.187Z,6.97
2023-01-21T15:31:35.155Z,8.77
2023-01-21T15:34:12.738Z,7.22
2023-01-21T15:36:47.240Z,7.70
2023-01-21T15:39:18.619Z,8.27
2023-01-21T15:42:06.047Z,9.25
2023-01-21T15:44:56.869Z,7.90
2023-01-21T15:47:55.934Z,7.32
2023-01-21T15:50:31.192Z,8.48
2023-01-21T15:53:25.779Z,7.65
2023-01-21T15:56:30.457Z,9.20
2023-01-21T15:59:12.866Z,9.82
2023-01-21T16:01:42.939Z,7.18
2023-01-21T16:04:29.357Z,8.65
2023-01-21T16:07:16.494Z,7.15
2023-01-21T16:10:00.898Z,8.30
2023-01-21T16:12:40.962Z,8.35
2023-01-21T16:15:21.049Z,6.97
2023-01-21T16:18:11.033Z,7.68
2023-01-21T16:20:44.802Z,9.13
2023-01-21T16:23:17.986Z,10.48
2023-01-21T16:25:48.158Z,9.55
2023-01-21T16:28:16.775Z,7.95
2023-01-21T16:30:55.405Z,9.38
2023-01-21T16:33:25.982Z,10.20
2023-01-21T16:36:00.616Z,11.30
2023-01-21T16:38:31.500Z,9.00
2023-01-21T16:41:27.460Z,10.40
2023-01-21T16:44:00.015Z,9.15
2023-01-21T16:46:34.385Z,11.27
2023-01-21T16:49:07.100Z,10.70
2023-01-21T16:51:38.051Z,8.75
2023-01-21T16:54:30.538Z,9.30
2023-01-21T16:57:01.697Z,7.60
2023-01-21T16:59:38.200Z,8.27
2023-01-21T17:02:16.844Z,6.53
2023-01-21T17:04:46.543Z,7.35
2023-01-21T17:07:17.474Z,8.88
2023-01-21T17:09:46.306Z,6.03
2023-01-21T17:12:24.677Z,9.45
2023-01-21T17:14:59.069Z,10.00
2023-01-21T17:19:59.823Z,8.10
2023-01-21T17:22:31.627Z,7.63
2023-01-21T17:25:08.473Z,9.07
2023-01-21T17:27:39.067Z,9.80
2023-01-21T17:30:30.265Z,7.40
2023-01-21T17:33:01.055Z,8.25
2023-01-21T17:35:32.857Z,8.57
2023-01-21T17:38:02.597Z,9.48
2023-01-21T17:40:34.622Z,8.57
2023-01-21T17:43:20.335Z,8.90
2023-01-21T17:45:51.175Z,7.35
2023-01-21T17:48:27.435Z,7.80
2023-01-21T17:51:04.303Z,8.65
2023-01-21T17:53:33.390Z,7.47
2023-01-21T17:56:04.965Z,8.73
2023-01-21T17:58:51.922Z,7.43
2023-01-21T18:01:21.396Z,8.48
2023-01-21T18:03:49.979Z,8.20
2023-01-21T18:06:25.441Z,7.50
2023-01-21T18:08:54.181Z,7.43
2023-01-21T18:11:23.221Z,8.27
2023-01-21T18:13:52.505Z,7.65
2023-01-21T18:16:21.226Z,8.18
2023-01-21T18:18:50.446Z,10.23
2023-01-21T18:21:22.014Z,7.75
2023-01-21T18:23:50.841Z,7.82
2023-01-21T18:26:28.309Z,8.27
2023-01-21T18:28:57.008Z,7.55
2023-01-21T18:31:25.659Z,7.40
2023-01-21T18:33:54.316Z,11.30
2023-01-21T18:36:24.037Z,10.05
2023-01-21T18:38:52.703Z,7.28
2023-01-21T18:41:21.258Z,6.93
2023-01-21T18:43:49.802Z,8.82
2023-01-21T18:46:19.768Z,6.50
2023-01-21T18:48:48.493Z,8.00
2023-01-21T18:51:17.078Z,8.85
2023-01-21T18:53:46.771Z,7.82
2023-01-21T18:56:16.775Z,8.27
2023-01-21T18:58:45.421Z,7.47
2023-01-21T19:01:23.205Z,8.80
2023-01-21T19:03:54.785Z,9.63
2023-01-21T19:06:25.297Z,8.30
2023-01-21T19:08:55.889Z,8.90
2023-01-21T19:11:24.242Z,7.88
2023-01-21T19:13:52.630Z,8.45
2023-01-21T19:16:22.299Z,7.50
2023-01-21T19:18:50.522Z,7.78
2023-01-21T19:21:19.089Z,8.20
2023-01-21T19:23:47.467Z,8.07
2023-01-21T19:26:17.859Z,8.63
2023-01-21T19:28:46.628Z,7.78
2023-01-21T19:31:14.897Z,7.63
2023-01-21T19:33:45.496Z,8.05
2023-01-21T19:36:17.281Z,9.07
2023-01-21T19:38:54.677Z,6.85
2023-01-21T19:41:25.045Z,8.27
2023-01-21T19:43:53.451Z,6.90
2023-01-21T19:46:23.733Z,6.45
2023-01-21T19:48:53.622Z,6.10
2023-01-21T19:51:22.227Z,7.25
2023-01-21T19:53:50.533Z,7.85
2023-01-21T19:56:24.678Z,7.60
2023-01-21T19:58:53.357Z,7.82
2023-01-21T20:01:21.860Z,8.43
2023-01-21T20:03:59.827Z,7.28
2023-01-21T20:06:35.426Z,8.63
2023-01-21T20:09:04.745Z,7.57
2023-01-21T20:11:35.358Z,7.05
2023-01-21T20:14:03.923Z,9.07
2023-01-21T20:16:33.201Z,9.73
2023-01-21T20:19:03.308Z,10.52
2023-01-21T20:21:31.799Z,8.70
2023-01-21T20:24:00.013Z,10.00
2023-01-21T20:26:28.971Z,11.25
2023-01-21T20:29:01.310Z,8.65
2023-01-21T20:31:30.188Z,9.93
2023-01-21T20:33:58.596Z,9.73
2023-01-21T20:36:27.764Z,9.98
2023-01-21T20:38:56.599Z,9.32
2023-01-21T20:41:25.334Z,9.50
2023-01-21T20:43:53.836Z,8.90
2023-01-21T20:46:27.327Z,8.32
2023-01-21T20:48:56.592Z,8.20
2023-01-21T20:51:25.556Z,8.13
2023-01-21T20:53:53.819Z,8.90
2023-01-21T20:56:26.457Z,9.10
2023-01-21T20:58:55.753Z,8.20
2023-01-21T21:01:27.507Z,7.88
2023-01-21T21:03:56.464Z,6.95
2023-01-21T21:06:28.649Z,9.13
2023-01-21T21:08:57.145Z,7.75
2023-01-21T21:11:25.409Z,7.88
2023-01-21T21:13:53.978Z,8.57
2023-01-21T21:16:27.588Z,8.13
2023-01-21T21:18:56.754Z,8.15
2023-01-21T21:21:25.560Z,7.65
2023-01-21T21:23:54.203Z,7.03
2023-01-21T21:26:24.585Z,5.68
2023-01-21T21:28:55.527Z,6.10
2023-01-21T21:31:26.838Z,6.47
2023-01-21T21:33:55.518Z,7.10
2023-01-21T21:36:25.014Z,7.18
2023-01-21T21:38:55.648Z,7.30
2023-01-21T21:41:44.069Z,6.63
2023-01-21T21:44:13.056Z,6.38
2023-01-21T21:47:00.080Z,6.85
2023-01-21T21:49:29.472Z,8.43
2023-01-21T21:52:00.000Z,8.65
2023-01-21T21:54:28.830Z,7.65
2023-01-21T21:56:57.497Z,6.43
2023-01-21T21:59:26.105Z,7.63
2023-01-21T22:01:55.734Z,7.50
2023-01-21T22:04:24.121Z,6.93
2023-01-21T22:06:52.651Z,7.60
2023-01-21T22:09:21.450Z,7.15
2023-01-21T22:11:49.975Z,7.40
2023-01-21T22:14:18.638Z,7.88
2023-01-21T22:16:49.647Z,6.75
2023-01-21T22:19:19.423Z,7.93
2023-01-21T22:21:47.899Z,7.05
2023-01-21T22:24:16.874Z,7.07
2023-01-21T22:26:45.357Z,8.90
2023-01-21T22:29:13.927Z,8.07
2023-01-21T22:31:45.385Z,8.30
2023-01-21T22:34:14.242Z,7.00
2023-01-21T22:36:47.105Z,7.97
2023-01-21T22:39:15.856Z,7.60
2023-01-21T22:41:44.389Z,7.88
2023-01-21T22:44:12.655Z,9.05
2023-01-21T22:46:40.846Z,8.00
2023-01-21T22:49:10.936Z,8.77
2023-01-21T22:51:39.546Z,8.40
2023-01-21T22:54:09.086Z,8.85
2023-01-21T22:56:51.615Z,10.55
2023-01-21T22:59:21.109Z,7.45
2023-01-21T23:01:50.967Z,8.80
2023-01-21T23:04:19.609Z,8.05
2023-01-21T23:06:48.742Z,8.98
2023-01-21T23:09:18.478Z,9.50
2023-01-21T23:11:47.120Z,10.55
2023-01-21T23:14:16.549Z,9.10
2023-01-21T23:16:45.082Z,8.35
2023-01-21T23:19:14.030Z,9.98
2023-01-21T23:21:42.580Z,7.88
2023-01-21T23:24:11.135Z,9.43
2023-01-21T23:26:40.685Z,9.20
2023-01-21T23:29:08.898Z,9.02
2023-01-21T23:31:37.478Z,8.63
2023-01-21T23:34:06.005Z,9.55
2023-01-21T23:36:34.521Z,9.02
2023-01-21T23:39:03.339Z,9.18
2023-01-21T23:41:31.833Z,10.88
2023-01-21T23:44:02.495Z,8.68
2023-01-21T23:46:31.236Z,11.70
2023-01-21T23:48:59.796Z,9.25
2023-01-21T23:51:28.392Z,8.60
2023-01-21T23:53:58.121Z,10.73
2023-01-21T23:56:27.262Z,9.63
2023-01-21T23:58:55.895Z,11.32
